Time;durP1;ratioP1;P1;durP2;ratioP2;P2;SDS_P1;SDS_P2;PMS_P1;PMS_P2;Temp;Humidity;BMP_temperature;BMP_pressure;BME280_temperature;BME280_humidity;BME280_pressure;Samples;Min_cycle;Max_cycle;Signal;HPM_P1;HPM_P2
2022/07/18 00:01:33;;;;;;;12.05;5.78;;;16.10;99.20;;;;;;5139504;27;20063;-77
2022/07/18 00:03:59;;;;;;;13.53;6.27;;;16.00;99.20;;;;;;5156859;27;20095;-77
2022/07/18 00:06:27;;;;;;;14.90;6.45;;;16.00;99.20;;;;;;5139401;27;20382;-79
2022/07/18 00:08:53;;;;;;;19.77;6.80;;;16.00;99.40;;;;;;5139695;27;20047;-77
2022/07/18 00:11:19;;;;;;;16.93;7.00;;;16.00;99.60;;;;;;5157956;27;20074;-77
2022/07/18 00:13:45;;;;;;;14.55;6.75;;;16.00;99.50;;;;;;5157820;27;20538;-78
2022/07/18 00:16:11;;;;;;;16.87;6.73;;;15.90;99.40;;;;;;5157853;27;20043;-77
2022/07/18 00:18:36;;;;;;;15.13;6.60;;;15.90;99.70;;;;;;5122300;27;20046;-77
2022/07/18 00:21:02;;;;;;;17.10;5.82;;;15.90;99.60;;;;;;5138991;27;20042;-76
2022/07/18 00:23:28;;;;;;;16.17;7.43;;;15.90;99.90;;;;;;5121855;27;20038;-78
2022/07/18 00:25:54;;;;;;;16.98;7.18;;;15.80;99.90;;;;;;5139466;27;20482;-77
2022/07/18 00:28:20;;;;;;;16.58;6.93;;;15.80;99.90;;;;;;5157559;27;20524;-76
2022/07/18 00:30:46;;;;;;;15.67;7.00;;;15.80;99.90;;;;;;5122520;27;20114;-77
2022/07/18 00:33:11;;;;;;;18.33;7.43;;;15.80;99.90;;;;;;5139021;27;20054;-78
2022/07/18 00:35:37;;;;;;;15.38;7.53;;;15.70;99.90;;;;;;5121875;27;20068;-79
2022/07/18 00:38:03;;;;;;;16.20;7.07;;;15.80;99.90;;;;;;5139277;27;20371;-77
2022/07/18 00:40:30;;;;;;;21.45;8.05;;;15.80;99.90;;;;;;5138975;27;20062;-77
2022/07/18 00:42:56;;;;;;;;;;;15.70;99.90;;;;;;5139838;27;20122;-77
2022/07/18 00:45:22;;;;;;;16.98;7.70;;;15.70;99.90;;;;;;5156915;27;19969;-76
2022/07/18 00:47:51;;;;;;;17.10;7.72;;;15.70;99.90;;;;;;5157166;27;20129;-77
2022/07/18 00:50:18;;;;;;;16.42;8.07;;;15.70;99.90;;;;;;5122077;27;20052;-76
2022/07/18 00:52:44;;;;;;;14.88;7.00;;;15.60;99.90;;;;;;5157409;27;20055;-76
2022/07/18 00:55:10;;;;;;;19.00;7.97;;;15.60;99.90;;;;;;5139051;27;20050;-77
2022/07/18 00:57:37;;;;;;;19.52;7.38;;;15.60;99.90;;;;;;5122337;27;20049;-77
2022/07/18 01:02:59;;;;;;;17.85;7.68;;;15.50;99.90;;;;;;5157768;27;20086;-78
2022/07/18 01:05:25;;;;;;;19.27;7.63;;;15.50;99.90;;;;;;5157403;27;20085;-77
2022/07/18 01:07:51;;;;;;;19.50;7.65;;;15.50;99.90;;;;;;5138644;27;20435;-76
2022/07/18 01:10:18;;;;;;;19.37;7.53;;;15.50;99.90;;;;;;5138733;27;20045;-76
2022/07/18 01:12:44;;;;;;;16.50;7.40;;;15.50;99.90;;;;;;5138868;27;20338;-77
2022/07/18 01:15:11;;;;;;;19.83;7.95;;;15.40;99.90;;;;;;5156985;27;20272;-76
2022/07/18 01:17:37;;;;;;;16.60;7.85;;;15.40;99.90;;;;;;5120717;27;20042;-76
2022/07/18 01:20:05;;;;;;;16.10;7.68;;;15.40;99.90;;;;;;5157086;27;20039;-78
2022/07/18 01:22:33;;;;;;;17.98;8.13;;;15.30;99.90;;;;;;5156941;27;20086;-77
2022/07/18 01:25:06;;;;;;;17.55;7.88;;;15.30;99.90;;;;;;5157498;27;20045;-77
2022/07/18 01:27:32;;;;;;;20.45;8.38;;;15.30;99.90;;;;;;5155423;27;20049;-78
2022/07/18 01:29:58;;;;;;;18.98;7.93;;;15.30;99.90;;;;;;5157781;27;20039;-76
2022/07/18 01:32:23;;;;;;;17.65;8.02;;;15.30;99.90;;;;;;5157043;27;20561;-77
2022/07/18 01:34:50;;;;;;;16.52;8.00;;;15.20;99.90;;;;;;5139168;27;20053;-77
2022/07/18 01:37:17;;;;;;;21.42;8.57;;;15.20;99.90;;;;;;5160058;27;20053;-78
2022/07/18 01:39:44;;;;;;;16.85;7.78;;;15.20;99.90;;;;;;5157923;27;20059;-77
2022/07/18 01:42:10;;;;;;;;;;;15.30;99.90;;;;;;5156838;27;20050;-77
2022/07/18 01:44:37;;;;;;;16.25;7.53;;;15.30;99.90;;;;;;5156536;27;19970;-75
2022/07/18 01:47:04;;;;;;;;;;;15.20;99.90;;;;;;5160569;27;20047;-76
2022/07/18 01:49:29;;;;;;;20.33;7.85;;;15.20;99.90;;;;;;5137579;27;19926;-76
2022/07/18 01:51:56;;;;;;;19.38;8.10;;;15.10;99.90;;;;;;5120439;27;20434;-76
2022/07/18 01:54:23;;;;;;;19.95;7.78;;;15.10;99.90;;;;;;5137052;27;20519;-76
2022/07/18 01:56:49;;;;;;;19.05;8.20;;;15.10;99.90;;;;;;5135756;27;20478;-75
2022/07/18 01:59:15;;;;;;;23.40;8.37;;;15.10;99.90;;;;;;5136649;27;20038;-76
2022/07/18 02:01:41;;;;;;;21.65;8.82;;;15.10;99.90;;;;;;5155269;27;20129;-75
2022/07/18 02:04:07;;;;;;;18.63;8.45;;;15.10;99.90;;;;;;5155871;27;20038;-76
2022/07/18 02:06:32;;;;;;;18.27;7.80;;;15.00;99.90;;;;;;5155098;27;20123;-76
2022/07/18 02:08:58;;;;;;;22.45;8.43;;;15.00;99.90;;;;;;5136768;27;20082;-76
2022/07/18 02:11:24;;;;;;;19.50;8.70;;;15.00;99.90;;;;;;5155143;27;20367;-78
2022/07/18 02:13:50;;;;;;;18.20;8.38;;;15.00;99.90;;;;;;5154967;27;20083;-75
2022/07/18 02:16:15;;;;;;;19.77;8.85;;;15.00;99.90;;;;;;5155706;27;20039;-74
2022/07/18 02:18:41;;;;;;;21.65;8.38;;;14.90;99.90;;;;;;5155383;27;20414;-75
2022/07/18 02:21:07;;;;;;;17.73;8.25;;;15.00;99.90;;;;;;5136652;27;20371;-75
2022/07/18 02:23:34;;;;;;;17.87;8.07;;;14.90;99.90;;;;;;5136224;27;20035;-76
2022/07/18 02:26:00;;;;;;;20.83;8.45;;;14.90;99.90;;;;;;5136190;27;20050;-76
2022/07/18 02:28:25;;;;;;;24.95;9.48;;;14.90;99.90;;;;;;5136575;27;20183;-76
2022/07/18 02:30:51;;;;;;;20.40;8.38;;;14.90;99.90;;;;;;5136267;27;20042;-76
2022/07/18 02:33:17;;;;;;;17.70;8.23;;;14.80;99.90;;;;;;5135923;27;20066;-76
2022/07/18 02:35:43;;;;;;;22.70;9.20;;;14.80;99.90;;;;;;5154699;27;20082;-75
2022/07/18 02:38:10;;;;;;;20.25;8.52;;;14.80;99.90;;;;;;5154459;27;20136;-76
2022/07/18 02:40:35;;;;;;;22.70;8.97;;;14.80;99.90;;;;;;5135738;27;20051;-76
2022/07/18 02:43:02;;;;;;;20.98;8.35;;;14.80;99.90;;;;;;5154874;27;20682;-75
2022/07/18 02:45:29;;;;;;;19.98;8.55;;;14.70;99.90;;;;;;5136027;27;20573;-76
2022/07/18 02:47:55;;;;;;;22.83;9.00;;;14.70;99.90;;;;;;5136780;27;20093;-76
2022/07/18 02:50:21;;;;;;;20.27;8.10;;;14.70;99.90;;;;;;5153421;27;20320;-76
2022/07/18 02:52:47;;;;;;;19.80;8.73;;;14.60;99.90;;;;;;5135948;27;20070;-75
2022/07/18 02:55:13;;;;;;;17.83;8.38;;;14.60;99.90;;;;;;5155103;27;20359;-76
2022/07/18 02:57:40;;;;;;;23.13;8.55;;;14.60;99.90;;;;;;5154498;27;20149;-75
2022/07/18 03:00:09;;;;;;;19.17;7.72;;;14.60;99.90;;;;;;5154936;27;20034;-76
2022/07/18 03:02:35;;;;;;;21.45;8.68;;;14.50;99.90;;;;;;5135873;27;20050;-76
2022/07/18 03:05:01;;;;;;;18.42;8.30;;;14.50;99.90;;;;;;5154273;27;20474;-76
2022/07/18 03:07:27;;;;;;;20.77;8.27;;;14.50;99.90;;;;;;5135544;27;20121;-75
2022/07/18 03:09:53;;;;;;;18.80;8.20;;;14.40;99.90;;;;;;5153241;27;20084;-75
2022/07/18 03:12:19;;;;;;;20.10;8.93;;;14.50;99.90;;;;;;5153930;27;20046;-75
2022/07/18 03:14:44;;;;;;;21.25;8.35;;;14.40;99.90;;;;;;5136144;27;20141;-75
2022/07/18 03:17:10;;;;;;;24.35;9.00;;;14.50;99.90;;;;;;5135652;27;20047;-75
2022/07/18 03:19:37;;;;;;;21.85;9.30;;;14.50;99.90;;;;;;5154087;27;20042;-75
2022/07/18 03:22:04;;;;;;;18.50;8.48;;;14.40;99.90;;;;;;5135904;27;20047;-76
2022/07/18 03:24:30;;;;;;;21.70;9.05;;;14.40;99.90;;;;;;5135685;27;20090;-75
2022/07/18 03:26:56;;;;;;;25.20;9.43;;;14.40;99.90;;;;;;5153866;27;20468;-75
2022/07/18 03:29:22;;;;;;;19.00;8.73;;;14.40;99.90;;;;;;5154690;27;20039;-75
2022/07/18 03:31:49;;;;;;;21.35;9.35;;;14.50;99.90;;;;;;5118430;27;20413;-76
2022/07/18 03:34:15;;;;;;;22.17;9.13;;;14.50;99.90;;;;;;5135813;27;20057;-76
2022/07/18 03:36:41;;;;;;;21.17;9.02;;;14.50;99.90;;;;;;5153891;27;20280;-76
2022/07/18 03:39:08;;;;;;;27.70;9.85;;;14.50;99.90;;;;;;5153727;27;20078;-75
2022/07/18 03:41:34;;;;;;;;;;;14.50;99.90;;;;;;5136181;27;20057;-76
2022/07/18 03:44:01;;;;;;;20.65;9.18;;;14.50;99.90;;;;;;5153546;27;20010;-76
2022/07/18 03:46:26;;;;;;;23.63;9.38;;;14.50;99.90;;;;;;5118751;27;20374;-76
2022/07/18 03:48:52;;;;;;;21.83;9.38;;;14.60;99.90;;;;;;5153521;27;20050;-76
2022/07/18 03:51:18;;;;;;;21.27;9.03;;;14.60;99.90;;;;;;5134973;27;20042;-76
2022/07/18 03:53:44;;;;;;;25.73;10.43;;;14.60;99.90;;;;;;5153604;27;20662;-77
2022/07/18 03:56:10;;;;;;;26.23;10.07;;;14.60;99.90;;;;;;5135121;27;20086;-76
2022/07/18 03:58:36;;;;;;;21.60;9.13;;;14.70;99.90;;;;;;5153529;27;20276;-76
2022/07/18 04:01:03;;;;;;;23.33;9.80;;;14.70;99.90;;;;;;5153428;27;20050;-76
2022/07/18 04:03:29;;;;;;;21.58;9.07;;;14.80;99.90;;;;;;5153279;27;20048;-76
2022/07/18 04:05:55;;;;;;;23.63;8.82;;;14.80;99.90;;;;;;5135380;27;20146;-76
2022/07/18 04:08:20;;;;;;;21.45;9.23;;;14.80;99.90;;;;;;5134905;27;20047;-76
2022/07/18 04:10:46;;;;;;;22.88;9.35;;;14.90;99.90;;;;;;5153397;27;20049;-76
2022/07/18 04:13:12;;;;;;;24.27;9.20;;;14.90;99.90;;;;;;5153475;27;20046;-76
2022/07/18 04:15:38;;;;;;;21.65;9.57;;;15.00;99.90;;;;;;5153435;27;20341;-76
2022/07/18 04:18:06;;;;;;;19.70;8.70;;;15.00;99.90;;;;;;5118483;27;20454;-76
2022/07/18 04:20:33;;;;;;;23.02;9.00;;;15.00;99.90;;;;;;5157072;27;20051;-76
2022/07/18 04:23:01;;;;;;;23.13;9.23;;;15.10;99.90;;;;;;5157747;27;20124;-75
2022/07/18 04:25:33;;;;;;;22.55;8.82;;;15.20;99.90;;;;;;5123928;27;20082;-77
2022/07/18 04:27:59;;;;;;;22.15;9.23;;;15.20;99.90;;;;;;5139737;27;20046;-76
2022/07/18 04:30:27;;;;;;;25.17;9.10;;;15.30;99.90;;;;;;5140226;27;20035;-75
2022/07/18 04:32:53;;;;;;;19.45;8.50;;;15.30;99.90;;;;;;5122073;27;20126;-75
2022/07/18 04:35:20;;;;;;;19.30;8.82;;;15.30;99.90;;;;;;5157190;27;20489;-76
2022/07/18 04:37:45;;;;;;;24.60;8.02;;;15.40;99.90;;;;;;5157589;27;20129;-75
2022/07/18 04:40:12;;;;;;;19.52;8.45;;;15.40;99.90;;;;;;5138388;27;20098;-77
2022/07/18 04:42:38;;;;;;;17.38;8.05;;;15.50;99.90;;;;;;5156991;27;20111;-77
2022/07/18 04:45:05;;;;;;;17.48;7.35;;;15.50;99.90;;;;;;5157004;27;20093;-77
2022/07/18 04:47:31;;;;;;;16.15;6.95;;;15.70;99.90;;;;;;5138347;27;20046;-78
2022/07/18 04:49:57;;;;;;;18.85;7.50;;;15.70;99.90;;;;;;5138518;27;20046;-78
2022/07/18 04:52:23;;;;;;;17.88;6.88;;;15.80;99.90;;;;;;5155620;27;20042;-79
2022/07/18 04:54:50;;;;;;;16.80;6.65;;;15.80;99.90;;;;;;5156947;27;20054;-77
2022/07/18 04:57:16;;;;;;;15.77;7.00;;;15.90;99.90;;;;;;5156633;27;20487;-77
2022/07/18 04:59:43;;;;;;;17.58;6.50;;;15.90;99.90;;;;;;5157132;27;20043;-78
2022/07/18 05:02:09;;;;;;;17.35;6.75;;;16.00;99.90;;;;;;5156290;27;20035;-77
2022/07/18 05:04:35;;;;;;;16.92;7.65;;;15.90;99.90;;;;;;5137904;27;20070;-76
2022/07/18 05:07:01;;;;;;;17.10;7.10;;;16.00;99.90;;;;;;5156762;27;20449;-77
2022/07/18 05:09:27;;;;;;;17.60;6.82;;;16.00;99.90;;;;;;5156508;27;20045;-76
2022/07/18 05:11:52;;;;;;;17.42;6.75;;;16.00;99.90;;;;;;5156871;27;20039;-77
2022/07/18 05:14:18;;;;;;;16.50;7.00;;;16.10;99.90;;;;;;5155597;27;20046;-76
2022/07/18 05:16:44;;;;;;;16.38;6.13;;;16.10;99.90;;;;;;5156380;27;20081;-76
2022/07/18 05:19:09;;;;;;;14.77;6.45;;;16.20;99.90;;;;;;5156231;27;20549;-76
2022/07/18 05:21:35;;;;;;;20.10;6.60;;;16.30;99.90;;;;;;5156499;27;20054;-76
2022/07/18 05:24:01;;;;;;;12.37;5.73;;;16.30;99.90;;;;;;5137788;27;20046;-76
2022/07/18 05:26:27;;;;;;;14.18;5.72;;;16.40;99.90;;;;;;5156776;27;20116;-76
2022/07/18 05:28:52;;;;;;;17.73;6.10;;;16.50;99.90;;;;;;5156207;27;20049;-76
2022/07/18 05:31:18;;;;;;;15.85;6.50;;;16.60;99.90;;;;;;5119261;27;20327;-76
2022/07/18 05:33:44;;;;;;;17.60;6.30;;;16.70;99.90;;;;;;5120583;27;20086;-76
2022/07/18 05:36:10;;;;;;;14.95;6.10;;;16.80;99.90;;;;;;5155746;27;20043;-76
2022/07/18 05:38:36;;;;;;;16.35;6.30;;;16.90;99.90;;;;;;5136916;27;20046;-76
2022/07/18 05:41:02;;;;;;;16.65;6.30;;;17.10;99.90;;;;;;5155922;27;20054;-75
2022/07/18 05:43:28;;;;;;;15.10;6.38;;;17.20;99.90;;;;;;5154481;27;20051;-75
2022/07/18 05:45:54;;;;;;;17.08;6.20;;;17.40;99.90;;;;;;5154815;27;20389;-78
2022/07/18 05:48:19;;;;;;;16.13;6.18;;;17.50;99.90;;;;;;5155739;27;20126;-75
2022/07/18 05:50:45;;;;;;;13.87;6.37;;;17.70;99.90;;;;;;5156042;27;20066;-76
2022/07/18 05:53:11;;;;;;;16.17;5.67;;;17.90;99.90;;;;;;5155647;27;20517;-75
2022/07/18 05:55:37;;;;;;;18.47;5.90;;;17.80;99.60;;;;;;5155637;27;20046;-75
2022/07/18 05:58:03;;;;;;;20.00;6.10;;;18.10;99.90;;;;;;5103433;27;20050;-76
2022/07/18 06:00:29;;;;;;;14.52;5.60;;;18.00;99.80;;;;;;5120050;27;20300;-76
2022/07/18 06:02:55;;;;;;;15.65;5.40;;;18.20;99.90;;;;;;5155553;27;20474;-77
2022/07/18 06:05:24;;;;;;;15.57;6.23;;;18.30;99.90;;;;;;5155521;27;20078;-76
2022/07/18 06:07:50;;;;;;;13.70;5.78;;;18.20;99.90;;;;;;5155398;27;20473;-77
2022/07/18 06:10:15;;;;;;;15.07;6.33;;;18.30;99.90;;;;;;5155783;27;20038;-76
2022/07/18 06:12:41;;;;;;;15.05;5.50;;;18.50;99.00;;;;;;5136661;27;20042;-77
2022/07/18 06:15:07;;;;;;;13.13;5.35;;;18.50;98.40;;;;;;5154266;27;20046;-77
2022/07/18 06:17:36;;;;;;;19.60;5.72;;;18.60;98.30;;;;;;5136860;27;20082;-78
2022/07/18 06:20:05;;;;;;;19.15;5.10;;;18.70;98.10;;;;;;5155062;27;20043;-75
2022/07/18 06:22:30;;;;;;;17.67;5.57;;;18.90;98.80;;;;;;5155189;27;20122;-77
2022/07/18 06:24:57;;;;;;;12.67;5.40;;;18.80;97.90;;;;;;5136814;27;20071;-76
2022/07/18 06:27:22;;;;;;;14.00;5.63;;;18.90;98.20;;;;;;5155020;27;20046;-76
2022/07/18 06:29:48;;;;;;;20.43;6.20;;;19.00;97.80;;;;;;5155277;27;20066;-75
2022/07/18 06:32:14;;;;;;;14.60;5.83;;;19.00;97.60;;;;;;5154319;27;20137;-75
2022/07/18 06:34:40;;;;;;;17.63;5.53;;;19.10;97.70;;;;;;5154840;27;20054;-76
2022/07/18 06:37:05;;;;;;;16.20;5.80;;;19.10;97.70;;;;;;5135809;27;20412;-75
2022/07/18 06:39:31;;;;;;;16.63;5.77;;;19.20;97.70;;;;;;5136481;27;20218;-74
2022/07/18 06:41:57;;;;;;;15.17;6.13;;;19.30;97.70;;;;;;5154506;27;20070;-77
2022/07/18 06:44:23;;;;;;;14.83;5.37;;;19.40;97.80;;;;;;5154902;27;20273;-76
2022/07/18 06:46:48;;;;;;;12.57;5.57;;;19.50;97.90;;;;;;5154816;27;20130;-76
2022/07/18 06:49:15;;;;;;;14.10;5.50;;;19.50;97.90;;;;;;5136108;27;20046;-77
2022/07/18 06:51:41;;;;;;;13.77;5.50;;;19.50;98.00;;;;;;5154947;27;20054;-77
2022/07/18 06:54:06;;;;;;;13.47;5.03;;;19.60;98.10;;;;;;5154109;27;20042;-77
2022/07/18 06:56:32;;;;;;;13.60;5.13;;;19.70;98.00;;;;;;5155955;27;20078;-77
2022/07/18 06:58:58;;;;;;;17.63;5.10;;;19.70;98.20;;;;;;5155516;27;20095;-77
2022/07/18 07:01:24;;;;;;;10.13;4.73;;;19.80;98.20;;;;;;5155363;27;20086;-76
2022/07/18 07:03:50;;;;;;;10.00;4.30;;;20.00;98.30;;;;;;5154772;27;20039;-76
2022/07/18 07:06:16;;;;;;;13.77;5.37;;;20.10;98.10;;;;;;5155077;27;20484;-76
2022/07/18 07:08:42;;;;;;;14.07;5.13;;;20.20;98.00;;;;;;5154508;27;20050;-76
2022/07/18 07:11:08;;;;;;;15.32;4.15;;;20.30;97.90;;;;;;5119007;27;20095;-75
2022/07/18 07:13:34;;;;;;;12.40;3.90;;;20.40;97.70;;;;;;5154521;27;20043;-77
2022/07/18 07:16:00;;;;;;;10.07;3.73;;;20.50;97.40;;;;;;5136118;27;20130;-77
2022/07/18 07:18:25;;;;;;;12.70;3.53;;;20.50;96.90;;;;;;5153299;27;20107;-77
2022/07/18 07:20:51;;;;;;;9.93;3.10;;;20.60;97.00;;;;;;5154531;27;20129;-78
2022/07/18 07:23:17;;;;;;;12.63;3.17;;;20.60;97.00;;;;;;5119532;27;20447;-78
2022/07/18 07:25:43;;;;;;;10.73;2.77;;;20.70;94.40;;;;;;5155949;27;20042;-78
2022/07/18 07:28:09;;;;;;;8.47;2.20;;;20.70;95.40;;;;;;5154630;27;20101;-77
2022/07/18 07:30:35;;;;;;;8.38;2.17;;;20.90;94.90;;;;;;5136335;27;20363;-77
2022/07/18 07:33:02;;;;;;;7.68;2.70;;;20.90;94.90;;;;;;5154578;27;20050;-77
2022/07/18 07:35:28;;;;;;;8.20;2.42;;;21.00;95.20;;;;;;5154285;27;20355;-77
2022/07/18 07:37:56;;;;;;;8.83;2.40;;;21.10;94.70;;;;;;5154205;27;20039;-76
2022/07/18 07:40:24;;;;;;;9.68;2.42;;;21.20;94.80;;;;;;5135257;27;20298;-76
2022/07/18 07:42:50;;;;;;;9.70;2.78;;;21.20;94.80;;;;;;5154823;27;20155;-75
2022/07/18 07:45:19;;;;;;;9.05;2.75;;;21.30;94.70;;;;;;5135284;27;20074;-76
2022/07/18 07:47:45;;;;;;;12.32;3.42;;;21.40;94.20;;;;;;5154117;27;20057;-76
2022/07/18 07:50:12;;;;;;;8.90;2.97;;;21.40;92.80;;;;;;5154032;27;20035;-76
2022/07/18 07:52:38;;;;;;;;;;;21.60;93.90;;;;;;5154537;27;20086;-75
2022/07/18 07:55:07;;;;;;;10.07;3.08;;;21.70;92.90;;;;;;5156842;27;20380;-76
2022/07/18 07:57:35;;;;;;;11.77;2.97;;;21.90;93.20;;;;;;5158179;27;20054;-75
2022/07/18 08:00:04;;;;;;;11.05;3.28;;;22.00;93.20;;;;;;5158259;27;20046;-75
2022/07/18 08:02:30;;;;;;;9.98;2.85;;;22.10;91.70;;;;;;5158511;27;20375;-77
2022/07/18 08:04:56;;;;;;;7.80;2.77;;;22.10;91.80;;;;;;5139745;27;20050;-77
2022/07/18 08:07:21;;;;;;;8.70;2.43;;;22.20;92.10;;;;;;5139417;27;20038;-76
2022/07/18 08:09:47;;;;;;;9.97;2.80;;;22.30;91.30;;;;;;5157946;27;20050;-76
2022/07/18 08:12:13;;;;;;;8.13;2.83;;;22.50;91.80;;;;;;5158163;27;20054;-76
2022/07/18 08:14:40;;;;;;;10.90;3.30;;;22.60;90.10;;;;;;5158115;27;20443;-77
2022/07/18 08:17:06;;;;;;;11.68;3.83;;;22.60;90.20;;;;;;5157791;27;20490;-77
2022/07/18 08:19:31;;;;;;;8.68;3.35;;;22.70;90.20;;;;;;5139890;27;20087;-77
2022/07/18 08:21:57;;;;;;;12.60;3.40;;;22.70;90.20;;;;;;5158926;27;20046;-76
2022/07/18 08:24:23;;;;;;;16.27;3.75;;;22.60;90.60;;;;;;5140265;27;20164;-77
2022/07/18 08:26:49;;;;;;;10.10;3.43;;;22.70;91.10;;;;;;5140757;27;20066;-76
2022/07/18 08:29:14;;;;;;;8.80;3.57;;;22.70;90.40;;;;;;5159162;27;20423;-76
2022/07/18 08:31:40;;;;;;;7.90;2.90;;;22.80;90.40;;;;;;5160899;27;20379;-76
2022/07/18 08:34:06;;;;;;;11.73;2.80;;;23.00;90.70;;;;;;5162050;27;20046;-77
2022/07/18 08:36:31;;;;;;;10.70;2.70;;;23.20;90.60;;;;;;5163362;27;20027;-76
2022/07/18 08:38:57;;;;;;;9.20;2.90;;;23.50;90.00;;;;;;5181169;27;20027;-75
2022/07/18 08:41:24;;;;;;;8.77;2.90;;;23.70;90.40;;;;;;5180670;27;20127;-76
2022/07/18 08:43:50;;;;;;;12.30;3.03;;;23.90;90.10;;;;;;5167240;27;20316;-76
2022/07/18 08:46:21;;;;;;;9.90;2.00;;;24.10;89.90;;;;;;5162894;27;20082;-75
2022/07/18 08:48:47;;;;;;;10.48;2.20;;;24.20;87.10;;;;;;5162690;27;20047;-75
2022/07/18 08:51:14;;;;;;;;;;;24.30;86.80;;;;;;5162066;27;20039;-76
2022/07/18 08:53:40;;;;;;;8.02;2.05;;;24.30;83.80;;;;;;5125862;27;19918;-76
2022/07/18 08:56:06;;;;;;;7.87;2.43;;;24.40;87.50;;;;;;5160454;27;20050;-75
2022/07/18 08:58:32;;;;;;;10.13;2.13;;;24.30;85.30;;;;;;5140711;27;20182;-75
2022/07/18 09:00:58;;;;;;;7.53;2.03;;;24.30;85.20;;;;;;5139542;27;20504;-75
2022/07/18 09:03:24;;;;;;;12.93;2.30;;;24.40;86.50;;;;;;5138251;27;20129;-75
2022/07/18 09:06:04;;;;;;;5.45;1.88;;;24.50;87.10;;;;;;5156276;27;20282;-76
2022/07/18 09:08:30;;;;;;;5.88;1.60;;;24.60;85.50;;;;;;5157376;27;20397;-75
2022/07/18 09:10:58;;;;;;;8.70;1.58;;;24.70;82.70;;;;;;5157335;27;20134;-75
2022/07/18 09:13:29;;;;;;;13.05;1.63;;;24.70;81.60;;;;;;5156473;27;20047;-76
2022/07/18 09:16:08;;;;;;;11.88;1.40;;;24.90;82.90;;;;;;5157060;27;20038;-76
2022/07/18 09:18:36;;;;;;;5.63;1.20;;;24.90;81.70;;;;;;5156943;27;20055;-76
2022/07/18 09:21:08;;;;;;;6.05;1.30;;;25.00;81.20;;;;;;5157088;27;20121;-75
2022/07/18 09:23:36;;;;;;;7.10;1.40;;;25.10;79.10;;;;;;5137925;27;20126;-75
2022/07/18 09:26:03;;;;;;;4.85;1.33;;;25.20;80.20;;;;;;5137920;27;20047;-76
2022/07/18 09:28:29;;;;;;;;;;;25.30;77.70;;;;;;5156794;27;20102;-75
2022/07/18 09:30:56;;;;;;;7.20;1.40;;;25.50;78.30;;;;;;5156461;27;19926;-75
2022/07/18 09:33:22;;;;;;;4.20;1.23;;;25.70;76.70;;;;;;5156109;27;20050;-75
2022/07/18 09:35:50;;;;;;;6.03;1.08;;;25.90;77.40;;;;;;5156815;27;20039;-75
2022/07/18 09:38:21;;;;;;;5.07;1.52;;;26.10;77.00;;;;;;5120829;27;20039;-74
2022/07/18 09:40:54;;;;;;;5.95;1.27;;;26.20;76.20;;;;;;5120357;27;20049;-75
2022/07/18 09:43:22;;;;;;;4.80;1.30;;;26.10;74.20;;;;;;5155832;27;20048;-74
2022/07/18 09:45:50;;;;;;;5.20;1.50;;;26.30;74.40;;;;;;5156155;27;20188;-75
2022/07/18 09:48:20;;;;;;;6.20;1.23;;;26.30;70.50;;;;;;5137767;27;20175;-76
2022/07/18 09:51:06;;;;;;;5.40;1.30;;;26.40;71.30;;;;;;5155526;27;20482;-75
2022/07/18 09:53:35;;;;;;;6.25;1.08;;;26.50;70.50;;;;;;5120900;27;20051;-76
2022/07/18 09:56:04;;;;;;;6.05;1.45;;;26.70;70.60;;;;;;5156022;27;20065;-74
2022/07/18 09:58:32;;;;;;;7.10;1.20;;;26.70;71.80;;;;;;5155643;27;20047;-75
2022/07/18 10:01:01;;;;;;;7.00;1.10;;;26.80;70.80;;;;;;5156151;27;20087;-76
2022/07/18 10:03:28;;;;;;;7.03;1.40;;;26.80;70.30;;;;;;5155892;27;20039;-76
2022/07/18 10:05:56;;;;;;;4.90;1.30;;;26.80;70.60;;;;;;5136674;27;20506;-77
2022/07/18 10:08:24;;;;;;;5.80;1.27;;;27.00;71.70;;;;;;5156490;27;20050;-75
2022/07/18 10:10:52;;;;;;;7.55;1.30;;;26.90;67.80;;;;;;5155970;27;20469;-75
2022/07/18 10:13:19;;;;;;;5.30;1.10;;;27.00;69.70;;;;;;5136791;27;20047;-75
2022/07/18 10:15:47;;;;;;;7.65;1.40;;;27.10;68.60;;;;;;5137293;27;20073;-76
2022/07/18 10:18:15;;;;;;;6.85;1.20;;;27.20;68.40;;;;;;5154515;27;20125;-76
2022/07/18 10:20:58;;;;;;;5.68;1.30;;;27.20;66.90;;;;;;5155501;27;20039;-75
2022/07/18 10:23:34;;;;;;;4.78;1.20;;;27.50;66.70;;;;;;5156385;27;20046;-76
2022/07/18 10:26:19;;;;;;;;;;;27.60;66.00;;;;;;5156923;27;20126;-76
2022/07/18 10:28:56;;;;;;;3.60;1.02;;;27.60;64.60;;;;;;5154968;27;19919;-76
2022/07/18 10:31:29;;;;;;;5.15;1.20;;;27.60;63.60;;;;;;5154955;27;20043;-76
2022/07/18 10:34:10;;;;;;;4.10;0.98;;;27.60;63.50;;;;;;5155051;27;20095;-76
2022/07/18 10:37:04;;;;;;;7.05;1.20;;;27.60;63.90;;;;;;5154676;27;20047;-75
2022/07/18 10:39:35;;;;;;;5.82;1.50;;;27.60;61.80;;;;;;5154705;27;20059;-75
2022/07/18 10:42:01;;;;;;;5.35;1.67;;;27.50;61.00;;;;;;5154616;27;20042;-75
2022/07/18 10:44:29;;;;;;;5.28;1.60;;;27.60;61.00;;;;;;5154929;27;20408;-75
2022/07/18 10:47:17;;;;;;;6.13;1.63;;;27.80;64.00;;;;;;5154800;27;20402;-75
2022/07/18 10:49:52;;;;;;;6.63;1.75;;;28.00;61.80;;;;;;5155051;27;20146;-74
2022/07/18 10:52:38;;;;;;;6.20;1.48;;;28.10;59.30;;;;;;5154563;27;20049;-74
2022/07/18 10:55:08;;;;;;;4.53;1.15;;;28.30;59.90;;;;;;5140361;27;20055;-74
2022/07/18 10:57:53;;;;;;;6.75;1.50;;;28.40;60.10;;;;;;5154521;27;20070;-75
2022/07/18 11:00:22;;;;;;;6.00;1.40;;;28.40;58.80;;;;;;5152659;27;20043;-74
2022/07/18 11:03:03;;;;;;;5.25;1.45;;;28.40;55.80;;;;;;5135947;27;20482;-75
2022/07/18 11:05:29;;;;;;;5.85;1.55;;;28.40;52.60;;;;;;5154592;27;20051;-74
2022/07/18 11:07:58;;;;;;;5.13;1.60;;;28.40;55.00;;;;;;5154352;27;20053;-74
2022/07/18 11:10:42;;;;;;;5.72;1.60;;;28.50;55.40;;;;;;5154493;27;20086;-75
2022/07/18 11:13:30;;;;;;;5.47;1.50;;;28.60;56.20;;;;;;5154181;27;20043;-74
2022/07/18 11:15:58;;;;;;;4.32;1.50;;;28.80;55.50;;;;;;5154687;27;20050;-75
2022/07/18 11:18:25;;;;;;;5.30;1.70;;;28.90;55.50;;;;;;5154247;27;20093;-74
2022/07/18 11:20:52;;;;;;;4.32;1.77;;;29.10;55.70;;;;;;5154091;27;20050;-75
2022/07/18 11:23:20;;;;;;;7.72;1.92;;;29.00;53.20;;;;;;5154033;27;20382;-76
2022/07/18 11:25:52;;;;;;;4.68;1.60;;;29.00;51.80;;;;;;5154230;27;20092;-75
2022/07/18 11:28:20;;;;;;;7.10;1.92;;;29.30;53.30;;;;;;5155010;27;20039;-74
2022/07/18 11:31:01;;;;;;;6.72;2.05;;;29.40;54.30;;;;;;5155015;27;20082;-75
2022/07/18 11:33:29;;;;;;;7.80;2.00;;;29.40;49.80;;;;;;5154167;27;20071;-76
2022/07/18 11:36:07;;;;;;;7.15;1.95;;;29.50;51.00;;;;;;5154603;27;20050;-76
2022/07/18 11:38:34;;;;;;;7.65;1.73;;;29.30;49.30;;;;;;5153054;27;20046;-75
2022/07/18 11:41:03;;;;;;;5.25;1.55;;;29.40;51.70;;;;;;5154382;27;20126;-76
2022/07/18 11:43:29;;;;;;;6.97;1.77;;;29.40;50.90;;;;;;5154043;27;20090;-75
2022/07/18 11:45:59;;;;;;;;;;;29.50;50.00;;;;;;5154457;27;20401;-74
2022/07/18 11:48:25;;;;;;;7.63;1.80;;;29.40;50.90;;;;;;5154102;27;19926;-75
2022/07/18 11:50:50;;;;;;;7.35;2.08;;;29.60;51.20;;;;;;5135823;27;20091;-77
2022/07/18 11:53:16;;;;;;;8.68;2.20;;;29.80;50.40;;;;;;5118175;27;20474;-76
2022/07/18 11:55:42;;;;;;;4.53;1.73;;;29.90;48.30;;;;;;5135384;27;20039;-75
2022/07/18 11:58:09;;;;;;;4.88;1.75;;;30.00;50.50;;;;;;5135381;27;20043;-76
2022/07/18 12:00:35;;;;;;;6.45;2.03;;;30.00;50.20;;;;;;5135750;27;20431;-76
2022/07/18 12:03:08;;;;;;;6.53;1.90;;;30.30;50.60;;;;;;5153744;27;20039;-75
2022/07/18 12:05:45;;;;;;;6.55;1.80;;;30.40;49.00;;;;;;5153825;27;20058;-75
2022/07/18 12:08:38;;;;;;;6.18;1.80;;;30.70;50.30;;;;;;5154091;27;20497;-75
2022/07/18 12:11:19;;;;;;;9.13;1.70;;;30.90;48.70;;;;;;5136083;27;20408;-75
2022/07/18 12:13:51;;;;;;;5.28;1.70;;;30.90;48.00;;;;;;5153958;27;20050;-75
2022/07/18 12:16:35;;;;;;;5.97;1.95;;;30.90;47.60;;;;;;5154259;27;20042;-76
2022/07/18 12:19:12;;;;;;;5.15;2.20;;;30.90;48.40;;;;;;5119558;27;20141;-76
2022/07/18 12:21:41;;;;;;;4.88;1.90;;;30.30;45.80;;;;;;5153152;27;20046;-75
2022/07/18 12:24:29;;;;;;;6.63;1.83;;;30.50;46.60;;;;;;5153956;27;20047;-75
2022/07/18 12:27:20;;;;;;;5.80;1.95;;;30.70;46.90;;;;;;5153642;27;20115;-74
2022/07/18 12:29:59;;;;;;;5.97;2.00;;;31.10;46.90;;;;;;5154329;27;20042;-76
2022/07/18 12:32:26;;;;;;;5.25;1.92;;;31.10;46.10;;;;;;5153491;27;20534;-76
2022/07/18 12:35:05;;;;;;;6.25;1.42;;;31.30;48.20;;;;;;5134987;27;20039;-75
2022/07/18 12:37:31;;;;;;;6.90;2.03;;;31.40;45.20;;;;;;5153328;27;20339;-76
2022/07/18 12:39:59;;;;;;;5.03;1.90;;;31.00;45.30;;;;;;5154179;27;20050;-76
2022/07/18 12:42:33;;;;;;;4.75;2.15;;;31.00;46.50;;;;;;5138885;27;20050;-74
2022/07/18 12:44:59;;;;;;;5.90;1.92;;;31.00;46.80;;;;;;5121510;27;20047;-76
2022/07/18 12:47:26;;;;;;;6.68;2.33;;;31.40;47.90;;;;;;5138921;27;20098;-76
2022/07/18 12:49:52;;;;;;;3.80;1.63;;;31.70;47.70;;;;;;5157030;27;20065;-75